Baldwinholme, United Kingdom
Current Conditions -  °F | °C
As of 4:50 AM on Saturday 22 Nov 2014 (Local Time) from EGOM Reporting Station
Moderate Rain Moderate Rain  
Wind Chill: 41°   Ceiling: 900
Heat Index: 45°   Visibility: 6mi
Dew Point: 45°   Wind: 7mph
Humidity: 100%   Direction: 90°E
Pressure: 29.71"   Gusts: NA
Location:  54.92°N, 3.1°W
Report Text: EGOM 220450Z AUTO 09006KT 9000 RA BKN009/// 07/07 Q1006
Loading
Personal Weather Stations






























Interactive Weather Map New forecast layout! Learn more

10-Day Weather Forecast

Advertisements
Track Severe Weather on mobile